sensor_id;sensor_type;location;lat;lon;timestamp;pressure;altitude;pressure_sealevel;temperature;humidity
63204;BME280;49297;43.210;27.914;2023-04-07T00:00:54;101003.97;;;6.86;68.17
63204;BME280;49297;43.210;27.914;2023-04-07T00:03:20;101010.09;;;6.86;67.51
63204;BME280;49297;43.210;27.914;2023-04-07T00:05:46;101009.25;;;6.86;67.91
63204;BME280;49297;43.210;27.914;2023-04-07T00:08:11;101010.94;;;6.87;67.59
63204;BME280;49297;43.210;27.914;2023-04-07T00:10:37;101001.34;;;6.86;67.12
63204;BME280;49297;43.210;27.914;2023-04-07T00:13:02;101004.13;;;6.84;66.96
63204;BME280;49297;43.210;27.914;2023-04-07T00:15:28;101005.25;;;6.80;66.99
63204;BME280;49297;43.210;27.914;2023-04-07T00:17:53;101003.47;;;6.81;66.73
63204;BME280;49297;43.210;27.914;2023-04-07T00:20:19;101004.13;;;6.84;66.73
63204;BME280;49297;43.210;27.914;2023-04-07T00:22:44;100999.78;;;6.83;66.69
63204;BME280;49297;43.210;27.914;2023-04-07T00:25:10;100999.97;;;6.80;67.35
63204;BME280;49297;43.210;27.914;2023-04-07T00:27:36;101004.53;;;6.78;67.41
63204;BME280;49297;43.210;27.914;2023-04-07T00:30:01;101003.06;;;6.74;67.65
63204;BME280;49297;43.210;27.914;2023-04-07T00:32:27;100998.72;;;6.73;68.07
63204;BME280;49297;43.210;27.914;2023-04-07T00:34:52;101002.53;;;6.69;68.72
63204;BME280;49297;43.210;27.914;2023-04-07T00:37:18;100997.25;;;6.69;68.85
63204;BME280;49297;43.210;27.914;2023-04-07T00:39:44;100998.81;;;6.72;68.33
63204;BME280;49297;43.210;27.914;2023-04-07T00:42:10;100996.94;;;6.74;68.92
63204;BME280;49297;43.210;27.914;2023-04-07T00:44:35;101006.41;;;6.76;68.25
63204;BME280;49297;43.210;27.914;2023-04-07T00:47:02;100999.34;;;6.77;68.54
63204;BME280;49297;43.210;27.914;2023-04-07T00:49:28;101004.53;;;6.78;67.90
63204;BME280;49297;43.210;27.914;2023-04-07T00:51:54;101009.78;;;6.78;67.11
63204;BME280;49297;43.210;27.914;2023-04-07T00:54:20;101005.25;;;6.80;65.52
63204;BME280;49297;43.210;27.914;2023-04-07T00:56:47;101009.59;;;6.81;64.99
63204;BME280;49297;43.210;27.914;2023-04-07T00:59:13;101006.22;;;6.79;63.74
63204;BME280;49297;43.210;27.914;2023-04-07T01:01:46;101000.94;;;6.79;63.31
63204;BME280;49297;43.210;27.914;2023-04-07T01:04:21;100998.31;;;6.79;61.48
63204;BME280;49297;43.210;27.914;2023-04-07T01:06:50;101006.22;;;6.79;60.80
63204;BME280;49297;43.210;27.914;2023-04-07T01:09:20;101006.94;;;6.81;60.14
63204;BME280;49297;43.210;27.914;2023-04-07T01:11:58;101004.53;;;6.78;59.82
63204;BME280;49297;43.210;27.914;2023-04-07T01:14:27;101001.88;;;6.78;57.97
63204;BME280;49297;43.210;27.914;2023-04-07T01:16:56;100995.78;;;6.78;57.67
63204;BME280;49297;43.210;27.914;2023-04-07T01:21:54;101002.81;;;6.77;56.06
63204;BME280;49297;43.210;27.914;2023-04-07T01:24:26;101001.69;;;6.81;55.06
63204;BME280;49297;43.210;27.914;2023-04-07T01:26:59;100997.25;;;6.82;53.67
63204;BME280;49297;43.210;27.914;2023-04-07T01:29:33;100998.94;;;6.83;53.52
63204;BME280;49297;43.210;27.914;2023-04-07T01:32:01;100999.78;;;6.83;53.16
63204;BME280;49297;43.210;27.914;2023-04-07T01:34:28;101003.25;;;6.84;52.78
63204;BME280;49297;43.210;27.914;2023-04-07T01:36:54;101003.03;;;6.87;52.98
63204;BME280;49297;43.210;27.914;2023-04-07T01:39:20;101003.78;;;6.89;53.09
63204;BME280;49297;43.210;27.914;2023-04-07T01:41:46;101004.59;;;6.90;51.97
63204;BME280;49297;43.210;27.914;2023-04-07T01:44:13;101006.31;;;6.91;52.21
63204;BME280;49297;43.210;27.914;2023-04-07T01:46:39;101005.56;;;6.89;51.50
63204;BME280;49297;43.210;27.914;2023-04-07T01:49:04;101005.69;;;6.87;52.15
63204;BME280;49297;43.210;27.914;2023-04-07T01:51:31;101002.22;;;6.86;52.31
63204;BME280;49297;43.210;27.914;2023-04-07T01:53:58;101001.25;;;6.88;52.04
63204;BME280;49297;43.210;27.914;2023-04-07T01:56:23;100999.47;;;6.88;52.38
63204;BME280;49297;43.210;27.914;2023-04-07T01:58:49;101000.31;;;6.89;51.71
63204;BME280;49297;43.210;27.914;2023-04-07T02:01:14;101007.25;;;6.90;52.22
63204;BME280;49297;43.210;27.914;2023-04-07T02:06:55;100999.34;;;6.90;51.32
63204;BME280;49297;43.210;27.914;2023-04-07T02:09:19;101004.75;;;6.88;51.62
63204;BME280;49297;43.210;27.914;2023-04-07T02:11:45;101002.94;;;6.89;52.26
63204;BME280;49297;43.210;27.914;2023-04-07T02:14:12;101009.03;;;6.89;52.13
63204;BME280;49297;43.210;27.914;2023-04-07T02:16:38;101005.13;;;6.95;51.79
63204;BME280;49297;43.210;27.914;2023-04-07T02:19:06;101007.56;;;6.98;51.79
63204;BME280;49297;43.210;27.914;2023-04-07T02:21:32;101011.88;;;6.99;51.53
63204;BME280;49297;43.210;27.914;2023-04-07T02:24:04;101012.81;;;6.98;51.86
63204;BME280;49297;43.210;27.914;2023-04-07T02:26:34;101004.00;;;6.99;51.60
63204;BME280;49297;43.210;27.914;2023-04-07T02:29:00;101008.38;;;6.98;51.95
63204;BME280;49297;43.210;27.914;2023-04-07T02:31:26;101014.81;;;6.94;52.41
63204;BME280;49297;43.210;27.914;2023-04-07T02:33:51;101015.75;;;6.93;52.46
63204;BME280;49297;43.210;27.914;2023-04-07T02:36:17;101015.56;;;6.96;52.95
63204;BME280;49297;43.210;27.914;2023-04-07T02:38:43;101021.78;;;6.95;53.04
63204;BME280;49297;43.210;27.914;2023-04-07T02:41:08;101018.53;;;6.92;54.91
63204;BME280;49297;43.210;27.914;2023-04-07T02:43:34;101029.47;;;6.85;56.04
63204;BME280;49297;43.210;27.914;2023-04-07T02:46:00;101024.41;;;6.82;56.64
63204;BME280;49297;43.210;27.914;2023-04-07T02:48:25;101032.63;;;6.78;57.28
63204;BME280;49297;43.210;27.914;2023-04-07T02:50:51;101030.09;;;6.76;57.52
63204;BME280;49297;43.210;27.914;2023-04-07T02:53:16;101028.41;;;6.75;58.17
63204;BME280;49297;43.210;27.914;2023-04-07T02:55:42;101032.22;;;6.71;59.08
63204;BME280;49297;43.210;27.914;2023-04-07T02:58:07;101032.63;;;6.65;59.52
63204;BME280;49297;43.210;27.914;2023-04-07T03:00:33;101036.19;;;6.64;59.66
63204;BME280;49297;43.210;27.914;2023-04-07T03:02:59;101032.00;;;6.61;60.15
63204;BME280;49297;43.210;27.914;2023-04-07T03:05:24;101040.84;;;6.60;59.86
63204;BME280;49297;43.210;27.914;2023-04-07T03:07:52;101032.94;;;6.60;60.15
63204;BME280;49297;43.210;27.914;2023-04-07T03:10:17;101029.97;;;6.52;59.62
63204;BME280;49297;43.210;27.914;2023-04-07T03:12:43;101034.50;;;6.50;59.13
63204;BME280;49297;43.210;27.914;2023-04-07T03:15:08;101031.22;;;6.46;58.82
63204;BME280;49297;43.210;27.914;2023-04-07T03:17:34;101038.19;;;6.47;58.52
63204;BME280;49297;43.210;27.914;2023-04-07T03:19:59;101034.94;;;6.44;58.33
63204;BME280;49297;43.210;27.914;2023-04-07T03:22:25;101040.28;;;6.42;57.55
63204;BME280;49297;43.210;27.914;2023-04-07T03:24:50;101047.34;;;6.42;57.22
63204;BME280;49297;43.210;27.914;2023-04-07T03:27:16;101043.94;;;6.40;56.42
63204;BME280;49297;43.210;27.914;2023-04-07T03:29:42;101041.44;;;6.38;55.91
63204;BME280;49297;43.210;27.914;2023-04-07T03:32:08;101055.34;;;6.40;55.87
63204;BME280;49297;43.210;27.914;2023-04-07T03:34:33;101056.06;;;6.42;55.42
63204;BME280;49297;43.210;27.914;2023-04-07T03:36:59;101054.16;;;6.44;55.34
63204;BME280;49297;43.210;27.914;2023-04-07T03:39:25;101059.53;;;6.43;55.11
63204;BME280;49297;43.210;27.914;2023-04-07T03:41:51;101069.13;;;6.44;54.71
63204;BME280;49297;43.210;27.914;2023-04-07T03:44:16;101062.16;;;6.43;54.18
63204;BME280;49297;43.210;27.914;2023-04-07T03:46:42;101068.25;;;6.43;54.54
63204;BME280;49297;43.210;27.914;2023-04-07T03:49:09;101070.06;;;6.43;54.29
63204;BME280;49297;43.210;27.914;2023-04-07T03:51:35;101069.03;;;6.45;54.04
63204;BME280;49297;43.210;27.914;2023-04-07T03:54:01;101067.22;;;6.46;53.71
63204;BME280;49297;43.210;27.914;2023-04-07T03:56:26;101073.22;;;6.48;52.89
63204;BME280;49297;43.210;27.914;2023-04-07T03:58:52;101071.22;;;6.52;53.26
63204;BME280;49297;43.210;27.914;2023-04-07T04:01:17;101077.97;;;6.56;52.90
63204;BME280;49297;43.210;27.914;2023-04-07T04:03:43;101076.09;;;6.58;52.43
63204;BME280;49297;43.210;27.914;2023-04-07T04:06:08;101076.72;;;6.61;51.94
63204;BME280;49297;43.210;27.914;2023-04-07T04:08:34;101087.03;;;6.64;51.31
63204;BME280;49297;43.210;27.914;2023-04-07T04:11:00;101083.38;;;6.67;50.75
63204;BME280;49297;43.210;27.914;2023-04-07T04:13:25;101087.75;;;6.66;50.22
63204;BME280;49297;43.210;27.914;2023-04-07T04:15:51;101094.81;;;6.66;50.21
63204;BME280;49297;43.210;27.914;2023-04-07T04:18:17;101097.47;;;6.66;50.58
63204;BME280;49297;43.210;27.914;2023-04-07T04:20:42;101098.19;;;6.68;51.01
63204;BME280;49297;43.210;27.914;2023-04-07T04:23:08;101105.25;;;6.67;50.69
63204;BME280;49297;43.210;27.914;2023-04-07T04:25:33;101099.06;;;6.69;50.73
63204;BME280;49297;43.210;27.914;2023-04-07T04:27:59;101096.09;;;6.73;51.18
63204;BME280;49297;43.210;27.914;2023-04-07T04:30:25;101109.06;;;6.76;50.56
63204;BME280;49297;43.210;27.914;2023-04-07T04:32:50;101108.97;;;6.78;50.54
63204;BME280;49297;43.210;27.914;2023-04-07T04:35:16;101109.88;;;6.77;50.64
63204;BME280;49297;43.210;27.914;2023-04-07T04:37:41;101106.63;;;6.73;50.66
63204;BME280;49297;43.210;27.914;2023-04-07T04:40:07;101111.16;;;6.71;50.76
63204;BME280;49297;43.210;27.914;2023-04-07T04:42:35;101106.94;;;6.69;50.16
63204;BME280;49297;43.210;27.914;2023-04-07T04:45:00;101107.88;;;6.67;50.18
63204;BME280;49297;43.210;27.914;2023-04-07T04:47:26;101111.97;;;6.72;49.76
63204;BME280;49297;43.210;27.914;2023-04-07T04:49:51;101111.78;;;6.75;50.18
63204;BME280;49297;43.210;27.914;2023-04-07T04:52:17;101118.53;;;6.79;50.09
63204;BME280;49297;43.210;27.914;2023-04-07T04:54:42;101114.13;;;6.79;49.42
63204;BME280;49297;43.210;27.914;2023-04-07T04:57:08;101120.03;;;6.83;49.27
63204;BME280;49297;43.210;27.914;2023-04-07T04:59:33;101119.78;;;6.86;49.90
63204;BME280;49297;43.210;27.914;2023-04-07T05:01:59;101123.19;;;6.88;49.71
63204;BME280;49297;43.210;27.914;2023-04-07T05:04:25;101129.19;;;6.90;49.74
63204;BME280;49297;43.210;27.914;2023-04-07T05:06:52;101133.09;;;6.97;49.32
63204;BME280;49297;43.210;27.914;2023-04-07T05:09:17;101138.03;;;7.02;49.33
63204;BME280;49297;43.210;27.914;2023-04-07T05:11:43;101131.63;;;7.06;48.94
63204;BME280;49297;43.210;27.914;2023-04-07T05:14:08;101131.28;;;7.11;48.53
63204;BME280;49297;43.210;27.914;2023-04-07T05:16:34;101130.16;;;7.15;48.19
63204;BME280;49297;43.210;27.914;2023-04-07T05:19:00;101132.47;;;7.19;48.19
63204;BME280;49297;43.210;27.914;2023-04-07T05:21:25;101130.56;;;7.21;48.36
63204;BME280;49297;43.210;27.914;2023-04-07T05:23:51;101129.00;;;7.19;48.30
63204;BME280;49297;43.210;27.914;2023-04-07T05:26:17;101135.00;;;7.21;48.02
63204;BME280;49297;43.210;27.914;2023-04-07T05:28:42;101144.25;;;7.27;47.76
63204;BME280;49297;43.210;27.914;2023-04-07T05:31:08;101150.16;;;7.30;47.71
63204;BME280;49297;43.210;27.914;2023-04-07T05:33:33;101151.00;;;7.31;47.87
63204;BME280;49297;43.210;27.914;2023-04-07T05:35:59;101153.22;;;7.37;47.83
63204;BME280;49297;43.210;27.914;2023-04-07T05:38:25;101154.69;;;7.41;48.04
63204;BME280;49297;43.210;27.914;2023-04-07T05:40:51;101152.56;;;7.46;48.09
63204;BME280;49297;43.210;27.914;2023-04-07T05:43:16;101149.38;;;7.54;47.69
63204;BME280;49297;43.210;27.914;2023-04-07T05:45:42;101148.56;;;7.53;47.41
63204;BME280;49297;43.210;27.914;2023-04-07T05:48:07;101145.91;;;7.53;47.32
63204;BME280;49297;43.210;27.914;2023-04-07T05:50:33;101152.56;;;7.59;47.08
63204;BME280;49297;43.210;27.914;2023-04-07T05:52:59;101148.88;;;7.61;47.69
63204;BME280;49297;43.210;27.914;2023-04-07T05:55:24;101157.16;;;7.68;46.93
63204;BME280;49297;43.210;27.914;2023-04-07T05:57:50;101146.41;;;7.71;46.55
63204;BME280;49297;43.210;27.914;2023-04-07T06:00:16;101158.75;;;7.71;46.43
63204;BME280;49297;43.210;27.914;2023-04-07T06:02:41;101159.19;;;7.77;46.77
63204;BME280;49297;43.210;27.914;2023-04-07T06:05:07;101158.22;;;7.78;46.29
63204;BME280;49297;43.210;27.914;2023-04-07T06:07:32;101157.69;;;7.73;46.13
63204;BME280;49297;43.210;27.914;2023-04-07T06:09:58;101174.38;;;7.74;46.18
63204;BME280;49297;43.210;27.914;2023-04-07T06:12:24;101166.00;;;7.80;46.36
63204;BME280;49297;43.210;27.914;2023-04-07T06:14:51;101167.47;;;7.84;46.43
63204;BME280;49297;43.210;27.914;2023-04-07T06:17:17;101171.69;;;7.87;46.41
63204;BME280;49297;43.210;27.914;2023-04-07T06:19:43;101174.97;;;7.90;46.39
63204;BME280;49297;43.210;27.914;2023-04-07T06:22:08;101182.31;;;7.98;46.98
63204;BME280;49297;43.210;27.914;2023-04-07T06:24:34;101174.09;;;8.03;46.00
63204;BME280;49297;43.210;27.914;2023-04-07T06:27:00;101173.44;;;8.12;46.83
63204;BME280;49297;43.210;27.914;2023-04-07T06:29:26;101178.88;;;8.22;45.63
63204;BME280;49297;43.210;27.914;2023-04-07T06:31:52;101178.22;;;8.31;46.62
63204;BME280;49297;43.210;27.914;2023-04-07T06:34:18;101180.00;;;8.43;46.55
63204;BME280;49297;43.210;27.914;2023-04-07T06:36:43;101182.69;;;8.54;45.42
63204;BME280;49297;43.210;27.914;2023-04-07T06:39:09;101179.34;;;8.64;45.32
63204;BME280;49297;43.210;27.914;2023-04-07T06:41:34;101189.00;;;8.76;45.15
63204;BME280;49297;43.210;27.914;2023-04-07T06:44:01;101181.13;;;8.87;44.60
63204;BME280;49297;43.210;27.914;2023-04-07T06:46:26;101182.84;;;9.00;44.22
63204;BME280;49297;43.210;27.914;2023-04-07T06:48:53;101186.19;;;9.02;45.53
63204;BME280;49297;43.210;27.914;2023-04-07T06:51:19;101191.25;;;9.05;44.88
63204;BME280;49297;43.210;27.914;2023-04-07T06:53:44;101187.16;;;9.01;45.17
63204;BME280;49297;43.210;27.914;2023-04-07T06:56:15;101187.78;;;9.04;44.17
63204;BME280;49297;43.210;27.914;2023-04-07T06:58:41;101191.97;;;9.07;44.30
63204;BME280;49297;43.210;27.914;2023-04-07T07:01:08;101193.44;;;9.11;43.59
63204;BME280;49297;43.210;27.914;2023-04-07T07:03:34;101193.56;;;9.09;43.77
63204;BME280;49297;43.210;27.914;2023-04-07T07:06:01;101201.38;;;9.22;44.36
63204;BME280;49297;43.210;27.914;2023-04-07T07:08:27;101192.53;;;9.34;43.64
63204;BME280;49297;43.210;27.914;2023-04-07T07:10:56;101195.88;;;9.37;42.84
63204;BME280;49297;43.210;27.914;2023-04-07T07:13:23;101201.78;;;9.40;42.04
63204;BME280;49297;43.210;27.914;2023-04-07T07:15:50;101200.94;;;9.40;41.02
63204;BME280;49297;43.210;27.914;2023-04-07T07:18:16;101207.41;;;9.36;40.48
63204;BME280;49297;43.210;27.914;2023-04-07T07:20:42;101206.69;;;9.33;41.12
63204;BME280;49297;43.210;27.914;2023-04-07T07:23:09;101206.34;;;9.38;40.70
63204;BME280;49297;43.210;27.914;2023-04-07T07:25:36;101201.44;;;9.45;40.22
63204;BME280;49297;43.210;27.914;2023-04-07T07:28:03;101214.06;;;9.52;40.71
63204;BME280;49297;43.210;27.914;2023-04-07T07:30:38;101210.69;;;9.62;39.67
63204;BME280;49297;43.210;27.914;2023-04-07T07:33:05;101208.91;;;9.74;40.39
63204;BME280;49297;43.210;27.914;2023-04-07T07:35:32;101213.81;;;9.67;39.75
63204;BME280;49297;43.210;27.914;2023-04-07T07:37:58;101217.56;;;9.64;39.55
63204;BME280;49297;43.210;27.914;2023-04-07T07:40:24;101217.41;;;9.66;39.24
63204;BME280;49297;43.210;27.914;2023-04-07T07:42:50;101218.50;;;9.75;39.18
63204;BME280;49297;43.210;27.914;2023-04-07T07:45:18;101217.53;;;9.87;39.18
63204;BME280;49297;43.210;27.914;2023-04-07T07:47:44;101213.81;;;10.01;39.17
63204;BME280;49297;43.210;27.914;2023-04-07T07:50:10;101225.00;;;10.04;39.11
63204;BME280;49297;43.210;27.914;2023-04-07T07:52:35;101220.78;;;10.13;39.47
63204;BME280;49297;43.210;27.914;2023-04-07T07:55:03;101229.44;;;10.15;38.44
63204;BME280;49297;43.210;27.914;2023-04-07T07:57:29;101221.25;;;10.18;38.55
63204;BME280;49297;43.210;27.914;2023-04-07T07:59:58;101226.31;;;10.33;38.53
63204;BME280;49297;43.210;27.914;2023-04-07T08:02:24;101234.22;;;10.44;37.41
63204;BME280;49297;43.210;27.914;2023-04-07T08:04:55;101230.03;;;10.41;37.44
63204;BME280;49297;43.210;27.914;2023-04-07T08:07:21;101230.84;;;10.42;37.01
63204;BME280;49297;43.210;27.914;2023-04-07T08:09:48;101227.09;;;10.44;36.86
63204;BME280;49297;43.210;27.914;2023-04-07T08:12:14;101225.19;;;10.46;36.89
63204;BME280;49297;43.210;27.914;2023-04-07T08:14:41;101215.78;;;10.54;37.08
63204;BME280;49297;43.210;27.914;2023-04-07T08:17:08;101234.69;;;10.49;36.53
63204;BME280;49297;43.210;27.914;2023-04-07T08:19:40;101226.31;;;10.33;36.54
63204;BME280;49297;43.210;27.914;2023-04-07T08:22:06;101234.00;;;10.36;37.20
63204;BME280;49297;43.210;27.914;2023-04-07T08:24:32;101232.41;;;10.44;37.56
63204;BME280;49297;43.210;27.914;2023-04-07T08:26:59;101225.16;;;10.58;37.36
63204;BME280;49297;43.210;27.914;2023-04-07T08:29:26;101236.69;;;10.68;36.90
63204;BME280;49297;43.210;27.914;2023-04-07T08:31:51;101233.28;;;10.77;37.36
63204;BME280;49297;43.210;27.914;2023-04-07T08:34:17;101227.34;;;10.85;36.66
63204;BME280;49297;43.210;27.914;2023-04-07T08:36:45;101230.09;;;10.95;37.36
63204;BME280;49297;43.210;27.914;2023-04-07T08:39:11;101234.63;;;11.04;36.64
63204;BME280;49297;43.210;27.914;2023-04-07T08:41:38;101238.34;;;11.01;35.92
63204;BME280;49297;43.210;27.914;2023-04-07T08:44:04;101235.97;;;10.98;36.32
63204;BME280;49297;43.210;27.914;2023-04-07T08:46:31;101227.75;;;11.01;36.48
63204;BME280;49297;43.210;27.914;2023-04-07T08:48:57;101231.31;;;11.12;36.63
63204;BME280;49297;43.210;27.914;2023-04-07T08:51:27;101237.91;;;11.17;35.92
63204;BME280;49297;43.210;27.914;2023-04-07T08:53:57;101238.44;;;11.11;35.94
63204;BME280;49297;43.210;27.914;2023-04-07T08:56:25;101249.97;;;11.10;36.02
63204;BME280;49297;43.210;27.914;2023-04-07T08:58:54;101251.34;;;11.04;36.31
63204;BME280;49297;43.210;27.914;2023-04-07T09:01:20;101249.22;;;10.98;36.47
63204;BME280;49297;43.210;27.914;2023-04-07T09:03:47;101249.97;;;10.89;36.22
63204;BME280;49297;43.210;27.914;2023-04-07T09:06:14;101255.41;;;10.76;36.84
63204;BME280;49297;43.210;27.914;2023-04-07T09:08:40;101264.47;;;10.74;36.94
63204;BME280;49297;43.210;27.914;2023-04-07T09:11:06;101259.19;;;10.74;36.88
63204;BME280;49297;43.210;27.914;2023-04-07T09:13:32;101264.44;;;10.85;37.12
63204;BME280;49297;43.210;27.914;2023-04-07T09:16:00;101262.47;;;10.98;37.05
63204;BME280;49297;43.210;27.914;2023-04-07T09:18:27;101263.94;;;11.12;37.10
63204;BME280;49297;43.210;27.914;2023-04-07T09:20:53;101248.19;;;11.32;37.01
63204;BME280;49297;43.210;27.914;2023-04-07T09:23:36;101261.97;;;11.47;36.33
63204;BME280;49297;43.210;27.914;2023-04-07T09:29:01;101272.50;;;11.37;36.78
63204;BME280;49297;43.210;27.914;2023-04-07T09:34:27;101260.66;;;11.62;36.75
63204;BME280;49297;43.210;27.914;2023-04-07T09:37:00;101261.75;;;11.80;36.62
63204;BME280;49297;43.210;27.914;2023-04-07T09:39:32;101268.53;;;11.94;36.40
63204;BME280;49297;43.210;27.914;2023-04-07T09:42:03;101259.66;;;12.05;36.35
63204;BME280;49297;43.210;27.914;2023-04-07T09:44:38;101273.81;;;12.25;36.61
63204;BME280;49297;43.210;27.914;2023-04-07T09:47:04;101273.97;;;12.33;35.80
63204;BME280;49297;43.210;27.914;2023-04-07T09:49:31;101270.34;;;12.34;35.49
63204;BME280;49297;43.210;27.914;2023-04-07T09:51:58;101268.53;;;12.35;35.65
63204;BME280;49297;43.210;27.914;2023-04-07T09:54:35;101270.38;;;12.44;35.93
63204;BME280;49297;43.210;27.914;2023-04-07T09:57:05;101273.06;;;12.64;35.97
63204;BME280;49297;43.210;27.914;2023-04-07T09:59:34;101276.31;;;12.77;35.84
63204;BME280;49297;43.210;27.914;2023-04-07T10:02:02;101271.72;;;12.89;35.91
63204;BME280;49297;43.210;27.914;2023-04-07T10:04:28;101270.16;;;12.96;35.37
63204;BME280;49297;43.210;27.914;2023-04-07T10:06:55;101272.38;;;13.01;35.61
63204;BME280;49297;43.210;27.914;2023-04-07T10:09:25;101272.41;;;13.10;36.05
63204;BME280;49297;43.210;27.914;2023-04-07T10:11:52;101277.97;;;13.17;36.24
63204;BME280;49297;43.210;27.914;2023-04-07T10:14:22;101284.72;;;13.21;36.20
63204;BME280;49297;43.210;27.914;2023-04-07T10:16:50;101275.75;;;13.22;36.06
63204;BME280;49297;43.210;27.914;2023-04-07T10:19:23;101284.00;;;13.29;36.53
63204;BME280;49297;43.210;27.914;2023-04-07T10:21:50;101277.03;;;13.38;35.96
63204;BME280;49297;43.210;27.914;2023-04-07T10:26:55;101278.91;;;13.65;35.98
63204;BME280;49297;43.210;27.914;2023-04-07T10:29:22;101284.47;;;13.81;36.50
63204;BME280;49297;43.210;27.914;2023-04-07T10:31:49;101278.78;;;13.76;35.04
63204;BME280;49297;43.210;27.914;2023-04-07T10:34:16;101283.59;;;13.53;35.02
63204;BME280;49297;43.210;27.914;2023-04-07T10:39:29;101281.91;;;13.52;36.52
63204;BME280;49297;43.210;27.914;2023-04-07T10:41:56;101278.97;;;13.45;36.07
63204;BME280;49297;43.210;27.914;2023-04-07T10:47:05;101289.03;;;13.51;36.41
63204;BME280;49297;43.210;27.914;2023-04-07T10:49:31;101283.72;;;13.51;36.09
63204;BME280;49297;43.210;27.914;2023-04-07T10:54:37;101277.00;;;13.57;35.81
63204;BME280;49297;43.210;27.914;2023-04-07T10:59:28;101280.50;;;13.38;36.27
63204;BME280;49297;43.210;27.914;2023-04-07T11:04:39;101280.50;;;13.38;36.71
63204;BME280;49297;43.210;27.914;2023-04-07T11:07:05;101285.00;;;13.38;36.63
63204;BME280;49297;43.210;27.914;2023-04-07T11:09:31;101278.16;;;13.35;35.71
63204;BME280;49297;43.210;27.914;2023-04-07T11:11:57;101271.28;;;13.23;35.80
63204;BME280;49297;43.210;27.914;2023-04-07T11:14:26;101270.97;;;13.26;35.93
63204;BME280;49297;43.210;27.914;2023-04-07T11:16:52;101273.09;;;13.42;36.32
63204;BME280;49297;43.210;27.914;2023-04-07T11:19:17;101279.78;;;13.56;36.14
63204;BME280;49297;43.210;27.914;2023-04-07T11:21:43;101280.63;;;13.66;35.87
63204;BME280;49297;43.210;27.914;2023-04-07T11:24:09;101281.31;;;13.68;35.82
63204;BME280;49297;43.210;27.914;2023-04-07T11:26:38;101271.16;;;13.81;35.70
63204;BME280;49297;43.210;27.914;2023-04-07T11:29:04;101275.91;;;13.87;34.99
63204;BME280;49297;43.210;27.914;2023-04-07T11:31:30;101274.34;;;13.95;34.59
63204;BME280;49297;43.210;27.914;2023-04-07T11:33:57;101276.41;;;14.11;34.71
63204;BME280;49297;43.210;27.914;2023-04-07T11:36:30;101269.22;;;14.21;35.19
63204;BME280;49297;43.210;27.914;2023-04-07T11:38:56;101276.59;;;14.27;35.30
63204;BME280;49297;43.210;27.914;2023-04-07T11:41:22;101270.50;;;14.35;35.38
63204;BME280;49297;43.210;27.914;2023-04-07T11:44:02;101267.94;;;14.43;35.27
63204;BME280;49297;43.210;27.914;2023-04-07T11:46:27;101268.78;;;14.43;35.12
63204;BME280;49297;43.210;27.914;2023-04-07T11:48:53;101263.78;;;14.40;34.92
63204;BME280;49297;43.210;27.914;2023-04-07T11:51:19;101266.97;;;14.44;35.67
63204;BME280;49297;43.210;27.914;2023-04-07T11:53:45;101267.50;;;14.47;35.57
63204;BME280;49297;43.210;27.914;2023-04-07T11:56:14;101270.88;;;14.50;35.21
63204;BME280;49297;43.210;27.914;2023-04-07T11:58:49;101265.50;;;14.59;34.78
63204;BME280;49297;43.210;27.914;2023-04-07T12:01:15;101266.47;;;15.30;33.81
63204;BME280;49297;43.210;27.914;2023-04-07T12:06:40;101281.44;;;17.36;30.93
63204;BME280;49297;43.210;27.914;2023-04-07T12:09:07;101270.13;;;17.82;29.81
63204;BME280;49297;43.210;27.914;2023-04-07T12:11:33;101266.34;;;18.16;29.86
63204;BME280;49297;43.210;27.914;2023-04-07T12:14:00;101272.47;;;18.64;29.44
63204;BME280;49297;43.210;27.914;2023-04-07T12:16:26;101268.41;;;18.99;28.55
63204;BME280;49297;43.210;27.914;2023-04-07T12:18:51;101267.00;;;19.27;27.81
63204;BME280;49297;43.210;27.914;2023-04-07T12:21:17;101262.50;;;19.57;27.63
63204;BME280;49297;43.210;27.914;2023-04-07T12:23:43;101262.75;;;20.00;27.21
63204;BME280;49297;43.210;27.914;2023-04-07T12:26:09;101270.72;;;20.23;26.34
63204;BME280;49297;43.210;27.914;2023-04-07T12:28:36;101267.06;;;20.31;25.63
63204;BME280;49297;43.210;27.914;2023-04-07T12:31:02;101263.63;;;20.59;25.69
63204;BME280;49297;43.210;27.914;2023-04-07T12:33:28;101266.44;;;20.87;26.01
63204;BME280;49297;43.210;27.914;2023-04-07T12:35:54;101263.53;;;21.03;25.94
63204;BME280;49297;43.210;27.914;2023-04-07T12:38:19;101261.50;;;20.69;26.55
63204;BME280;49297;43.210;27.914;2023-04-07T12:40:45;101266.47;;;19.84;27.65
63204;BME280;49297;43.210;27.914;2023-04-07T12:43:11;101274.69;;;18.92;29.67
63204;BME280;49297;43.210;27.914;2023-04-07T12:45:36;101283.81;;;18.03;31.92
63204;BME280;49297;43.210;27.914;2023-04-07T12:48:02;101283.63;;;17.33;33.32
63204;BME280;49297;43.210;27.914;2023-04-07T12:50:28;101288.09;;;16.91;34.21
63204;BME280;49297;43.210;27.914;2023-04-07T12:52:54;101278.78;;;16.44;35.35
63204;BME280;49297;43.210;27.914;2023-04-07T12:55:20;101291.31;;;16.09;35.60
63204;BME280;49297;43.210;27.914;2023-04-07T12:57:46;101288.50;;;15.76;35.60
63204;BME280;49297;43.210;27.914;2023-04-07T13:00:12;101291.78;;;15.52;36.08
63204;BME280;49297;43.210;27.914;2023-04-07T13:02:38;101294.84;;;15.31;37.28
63204;BME280;49297;43.210;27.914;2023-04-07T13:05:04;101299.88;;;14.98;37.00
63204;BME280;49297;43.210;27.914;2023-04-07T13:07:30;101297.91;;;14.55;37.46
63204;BME280;49297;43.210;27.914;2023-04-07T13:09:55;101298.03;;;14.25;37.73
63204;BME280;49297;43.210;27.914;2023-04-07T13:12:21;101305.81;;;14.09;39.82